Grand Rapids, North Dakota
Current Conditions -  °F | °C
As of 12:15 PM on Wednesday 28 Jan 2015 (Local Time) from KGWR Reporting Station
Overcast Overcast  
Wind Chill: 29°   Ceiling: 200
Heat Index: 36°   Visibility: 4mi
Dew Point: 36°   Wind: 9mph
Humidity: 100%   Direction: 140°SE
Pressure: 29.74"   Gusts: NA
Location:  46.37°N, 98.2854°W
Report Text: KGWR 281815Z AUTO 14008KT 4SM OVC002 02/02 A2974 RMK A01 P000
Loading
Personal Weather Stations






























Interactive Weather Map New forecast layout! Learn more

10-Day Weather Forecast

Advertisements
Track Severe Weather on mobile